sensor_id;sensor_type;location;lat;lon;timestamp;P1;durP1;ratioP1;P2;durP2;ratioP2
37001;SDS011;22913;51.910;8.374;2022-07-24T00:01:18;3.90;;;2.70;;
37001;SDS011;22913;51.910;8.374;2022-07-24T00:04:04;3.07;;;2.77;;
37001;SDS011;22913;51.910;8.374;2022-07-24T00:06:50;5.17;;;2.40;;
37001;SDS011;22913;51.910;8.374;2022-07-24T00:09:37;2.60;;;2.37;;
37001;SDS011;22913;51.910;8.374;2022-07-24T00:12:23;2.97;;;2.70;;
37001;SDS011;22913;51.910;8.374;2022-07-24T00:15:09;3.03;;;2.53;;
37001;SDS011;22913;51.910;8.374;2022-07-24T00:17:55;2.77;;;2.57;;
37001;SDS011;22913;51.910;8.374;2022-07-24T00:20:41;2.63;;;2.43;;
37001;SDS011;22913;51.910;8.374;2022-07-24T00:23:29;3.23;;;2.57;;
37001;SDS011;22913;51.910;8.374;2022-07-24T00:26:16;4.03;;;2.70;;
37001;SDS011;22913;51.910;8.374;2022-07-24T00:29:02;2.87;;;2.67;;
37001;SDS011;22913;51.910;8.374;2022-07-24T00:31:48;2.50;;;2.40;;
37001;SDS011;22913;51.910;8.374;2022-07-24T00:34:34;3.07;;;2.80;;
37001;SDS011;22913;51.910;8.374;2022-07-24T00:37:19;3.57;;;3.27;;
37001;SDS011;22913;51.910;8.374;2022-07-24T00:40:06;2.90;;;2.70;;
37001;SDS011;22913;51.910;8.374;2022-07-24T00:42:54;2.87;;;2.70;;
37001;SDS011;22913;51.910;8.374;2022-07-24T00:45:40;3.30;;;2.90;;
37001;SDS011;22913;51.910;8.374;2022-07-24T00:48:25;3.07;;;2.87;;
37001;SDS011;22913;51.910;8.374;2022-07-24T00:51:11;3.17;;;2.87;;
37001;SDS011;22913;51.910;8.374;2022-07-24T00:53:58;4.93;;;3.37;;
37001;SDS011;22913;51.910;8.374;2022-07-24T00:56:45;4.00;;;3.57;;
37001;SDS011;22913;51.910;8.374;2022-07-24T00:59:33;3.70;;;3.50;;
37001;SDS011;22913;51.910;8.374;2022-07-24T01:02:18;3.70;;;3.10;;
37001;SDS011;22913;51.910;8.374;2022-07-24T01:05:04;3.60;;;3.40;;
37001;SDS011;22913;51.910;8.374;2022-07-24T01:07:51;3.33;;;3.03;;
37001;SDS011;22913;51.910;8.374;2022-07-24T01:10:36;4.40;;;3.50;;
37001;SDS011;22913;51.910;8.374;2022-07-24T01:13:22;4.23;;;3.87;;
37001;SDS011;22913;51.910;8.374;2022-07-24T01:16:09;3.80;;;3.50;;
37001;SDS011;22913;51.910;8.374;2022-07-24T01:18:55;3.67;;;3.37;;
37001;SDS011;22913;51.910;8.374;2022-07-24T01:21:45;3.43;;;3.13;;
37001;SDS011;22913;51.910;8.374;2022-07-24T01:24:32;4.13;;;3.67;;
37001;SDS011;22913;51.910;8.374;2022-07-24T01:27:18;3.97;;;3.67;;
37001;SDS011;22913;51.910;8.374;2022-07-24T01:30:05;4.13;;;3.73;;
37001;SDS011;22913;51.910;8.374;2022-07-24T01:32:51;3.60;;;3.30;;
37001;SDS011;22913;51.910;8.374;2022-07-24T01:35:37;3.57;;;3.33;;
37001;SDS011;22913;51.910;8.374;2022-07-24T01:38:25;4.47;;;3.43;;
37001;SDS011;22913;51.910;8.374;2022-07-24T01:41:10;3.87;;;3.67;;
37001;SDS011;22913;51.910;8.374;2022-07-24T01:43:56;3.57;;;3.37;;
37001;SDS011;22913;51.910;8.374;2022-07-24T01:46:41;3.90;;;3.60;;
37001;SDS011;22913;51.910;8.374;2022-07-24T01:49:27;4.00;;;3.60;;
37001;SDS011;22913;51.910;8.374;2022-07-24T01:52:13;4.27;;;3.97;;
37001;SDS011;22913;51.910;8.374;2022-07-24T01:55:00;5.40;;;3.80;;
37001;SDS011;22913;51.910;8.374;2022-07-24T01:57:45;4.07;;;3.50;;
37001;SDS011;22913;51.910;8.374;2022-07-24T02:00:31;3.60;;;3.40;;
37001;SDS011;22913;51.910;8.374;2022-07-24T02:03:17;4.03;;;3.73;;
37001;SDS011;22913;51.910;8.374;2022-07-24T02:06:04;3.90;;;3.60;;
37001;SDS011;22913;51.910;8.374;2022-07-24T02:08:49;6.13;;;3.73;;
37001;SDS011;22913;51.910;8.374;2022-07-24T02:11:36;5.93;;;4.33;;
37001;SDS011;22913;51.910;8.374;2022-07-24T02:14:22;7.50;;;4.03;;
37001;SDS011;22913;51.910;8.374;2022-07-24T02:17:08;3.80;;;3.60;;
37001;SDS011;22913;51.910;8.374;2022-07-24T02:19:54;4.20;;;3.80;;
37001;SDS011;22913;51.910;8.374;2022-07-24T02:22:39;4.40;;;4.03;;
37001;SDS011;22913;51.910;8.374;2022-07-24T02:25:25;6.17;;;4.10;;
37001;SDS011;22913;51.910;8.374;2022-07-24T02:28:12;3.87;;;3.60;;
37001;SDS011;22913;51.910;8.374;2022-07-24T02:30:58;4.30;;;3.73;;
37001;SDS011;22913;51.910;8.374;2022-07-24T02:33:44;4.17;;;3.80;;
37001;SDS011;22913;51.910;8.374;2022-07-24T02:36:30;4.33;;;4.00;;
37001;SDS011;22913;51.910;8.374;2022-07-24T02:39:15;4.23;;;3.83;;
37001;SDS011;22913;51.910;8.374;2022-07-24T02:42:01;4.10;;;3.90;;
37001;SDS011;22913;51.910;8.374;2022-07-24T02:44:48;4.27;;;3.70;;
37001;SDS011;22913;51.910;8.374;2022-07-24T02:47:34;5.57;;;4.23;;
37001;SDS011;22913;51.910;8.374;2022-07-24T02:50:20;3.93;;;3.20;;
37001;SDS011;22913;51.910;8.374;2022-07-24T02:53:07;3.67;;;3.37;;
37001;SDS011;22913;51.910;8.374;2022-07-24T02:55:53;3.73;;;3.43;;
37001;SDS011;22913;51.910;8.374;2022-07-24T02:58:39;4.93;;;3.47;;
37001;SDS011;22913;51.910;8.374;2022-07-24T03:01:26;3.50;;;3.20;;
37001;SDS011;22913;51.910;8.374;2022-07-24T03:04:12;4.20;;;3.43;;
37001;SDS011;22913;51.910;8.374;2022-07-24T03:06:57;3.43;;;3.13;;
37001;SDS011;22913;51.910;8.374;2022-07-24T03:09:43;3.60;;;3.30;;
37001;SDS011;22913;51.910;8.374;2022-07-24T03:12:29;3.90;;;3.60;;
37001;SDS011;22913;51.910;8.374;2022-07-24T03:15:15;3.73;;;3.40;;
37001;SDS011;22913;51.910;8.374;2022-07-24T03:18:02;4.03;;;3.73;;
37001;SDS011;22913;51.910;8.374;2022-07-24T03:20:49;3.50;;;3.20;;
37001;SDS011;22913;51.910;8.374;2022-07-24T03:23:34;4.07;;;3.73;;
37001;SDS011;22913;51.910;8.374;2022-07-24T03:26:20;3.60;;;3.30;;
37001;SDS011;22913;51.910;8.374;2022-07-24T03:29:06;7.50;;;3.97;;
37001;SDS011;22913;51.910;8.374;2022-07-24T03:31:52;3.80;;;3.50;;
37001;SDS011;22913;51.910;8.374;2022-07-24T03:34:39;3.70;;;3.30;;
37001;SDS011;22913;51.910;8.374;2022-07-24T03:37:24;3.50;;;3.10;;
37001;SDS011;22913;51.910;8.374;2022-07-24T03:40:10;4.33;;;3.40;;
37001;SDS011;22913;51.910;8.374;2022-07-24T03:42:56;3.23;;;3.03;;
37001;SDS011;22913;51.910;8.374;2022-07-24T03:45:42;3.63;;;3.30;;
37001;SDS011;22913;51.910;8.374;2022-07-24T03:48:28;3.67;;;3.37;;
37001;SDS011;22913;51.910;8.374;2022-07-24T03:51:15;3.70;;;3.40;;
37001;SDS011;22913;51.910;8.374;2022-07-24T03:54:01;4.93;;;3.43;;
37001;SDS011;22913;51.910;8.374;2022-07-24T03:56:47;3.60;;;3.40;;
37001;SDS011;22913;51.910;8.374;2022-07-24T03:59:33;3.67;;;3.40;;
37001;SDS011;22913;51.910;8.374;2022-07-24T04:02:18;3.97;;;3.40;;
37001;SDS011;22913;51.910;8.374;2022-07-24T04:05:05;5.17;;;3.30;;
37001;SDS011;22913;51.910;8.374;2022-07-24T04:07:54;2.90;;;2.70;;
37001;SDS011;22913;51.910;8.374;2022-07-24T04:10:39;3.60;;;3.30;;
37001;SDS011;22913;51.910;8.374;2022-07-24T04:13:25;3.43;;;3.13;;
37001;SDS011;22913;51.910;8.374;2022-07-24T04:16:14;3.07;;;2.87;;
37001;SDS011;22913;51.910;8.374;2022-07-24T04:18:59;3.33;;;3.03;;
37001;SDS011;22913;51.910;8.374;2022-07-24T04:21:45;3.13;;;2.93;;
37001;SDS011;22913;51.910;8.374;2022-07-24T04:24:32;4.57;;;3.07;;
37001;SDS011;22913;51.910;8.374;2022-07-24T04:27:18;3.93;;;3.10;;
37001;SDS011;22913;51.910;8.374;2022-07-24T04:30:04;3.40;;;3.20;;
37001;SDS011;22913;51.910;8.374;2022-07-24T04:32:51;3.70;;;2.70;;
37001;SDS011;22913;51.910;8.374;2022-07-24T04:35:37;4.03;;;2.97;;
37001;SDS011;22913;51.910;8.374;2022-07-24T04:38:22;2.80;;;2.70;;
37001;SDS011;22913;51.910;8.374;2022-07-24T04:41:09;2.97;;;2.77;;
37001;SDS011;22913;51.910;8.374;2022-07-24T04:43:55;3.23;;;2.93;;
37001;SDS011;22913;51.910;8.374;2022-07-24T04:46:41;3.10;;;2.80;;
37001;SDS011;22913;51.910;8.374;2022-07-24T04:49:27;4.93;;;3.30;;
37001;SDS011;22913;51.910;8.374;2022-07-24T04:52:12;3.67;;;2.80;;
37001;SDS011;22913;51.910;8.374;2022-07-24T04:54:58;3.40;;;3.20;;
37001;SDS011;22913;51.910;8.374;2022-07-24T04:57:46;5.23;;;2.90;;
37001;SDS011;22913;51.910;8.374;2022-07-24T05:00:31;3.37;;;3.07;;
37001;SDS011;22913;51.910;8.374;2022-07-24T05:03:17;3.00;;;2.80;;
37001;SDS011;22913;51.910;8.374;2022-07-24T05:06:03;3.03;;;2.83;;
37001;SDS011;22913;51.910;8.374;2022-07-24T05:08:49;3.57;;;2.73;;
37001;SDS011;22913;51.910;8.374;2022-07-24T05:11:35;3.23;;;2.70;;
37001;SDS011;22913;51.910;8.374;2022-07-24T05:14:22;3.07;;;2.73;;
37001;SDS011;22913;51.910;8.374;2022-07-24T05:17:08;3.27;;;3.07;;
37001;SDS011;22913;51.910;8.374;2022-07-24T05:19:53;3.50;;;2.73;;
37001;SDS011;22913;51.910;8.374;2022-07-24T05:22:39;3.53;;;3.00;;
37001;SDS011;22913;51.910;8.374;2022-07-24T05:25:25;3.80;;;3.43;;
37001;SDS011;22913;51.910;8.374;2022-07-24T05:28:11;3.20;;;2.90;;
37001;SDS011;22913;51.910;8.374;2022-07-24T05:30:58;4.37;;;2.77;;
37001;SDS011;22913;51.910;8.374;2022-07-24T05:33:43;3.47;;;2.97;;
37001;SDS011;22913;51.910;8.374;2022-07-24T05:36:29;3.10;;;2.80;;
37001;SDS011;22913;51.910;8.374;2022-07-24T05:39:15;3.90;;;2.80;;
37001;SDS011;22913;51.910;8.374;2022-07-24T05:42:01;2.93;;;2.73;;
37001;SDS011;22913;51.910;8.374;2022-07-24T05:44:48;3.30;;;3.00;;
37001;SDS011;22913;51.910;8.374;2022-07-24T05:47:36;3.23;;;2.87;;
37001;SDS011;22913;51.910;8.374;2022-07-24T05:50:22;3.73;;;3.10;;
37001;SDS011;22913;51.910;8.374;2022-07-24T05:53:08;4.23;;;2.90;;
37001;SDS011;22913;51.910;8.374;2022-07-24T05:55:54;3.37;;;3.07;;
37001;SDS011;22913;51.910;8.374;2022-07-24T05:58:40;4.20;;;3.03;;
37001;SDS011;22913;51.910;8.374;2022-07-24T06:01:26;3.50;;;2.93;;
37001;SDS011;22913;51.910;8.374;2022-07-24T06:04:13;4.50;;;2.90;;
37001;SDS011;22913;51.910;8.374;2022-07-24T06:06:59;2.93;;;2.73;;
37001;SDS011;22913;51.910;8.374;2022-07-24T06:09:44;4.80;;;2.93;;
37001;SDS011;22913;51.910;8.374;2022-07-24T06:12:30;4.67;;;3.60;;
37001;SDS011;22913;51.910;8.374;2022-07-24T06:15:16;3.30;;;3.00;;
37001;SDS011;22913;51.910;8.374;2022-07-24T06:18:02;3.87;;;3.10;;
37001;SDS011;22913;51.910;8.374;2022-07-24T06:20:49;4.80;;;3.20;;
37001;SDS011;22913;51.910;8.374;2022-07-24T06:23:35;3.27;;;3.07;;
37001;SDS011;22913;51.910;8.374;2022-07-24T06:26:21;4.17;;;3.37;;
37001;SDS011;22913;51.910;8.374;2022-07-24T06:29:06;7.40;;;3.33;;
37001;SDS011;22913;51.910;8.374;2022-07-24T06:31:52;4.17;;;3.53;;
37001;SDS011;22913;51.910;8.374;2022-07-24T06:34:38;3.47;;;3.23;;
37001;SDS011;22913;51.910;8.374;2022-07-24T06:37:25;4.27;;;3.60;;
37001;SDS011;22913;51.910;8.374;2022-07-24T06:40:11;3.87;;;3.57;;
37001;SDS011;22913;51.910;8.374;2022-07-24T06:42:57;3.67;;;3.47;;
37001;SDS011;22913;51.910;8.374;2022-07-24T06:45:42;4.70;;;3.63;;
37001;SDS011;22913;51.910;8.374;2022-07-24T06:48:29;3.80;;;3.43;;
37001;SDS011;22913;51.910;8.374;2022-07-24T06:51:15;4.33;;;3.20;;
37001;SDS011;22913;51.910;8.374;2022-07-24T06:54:02;5.30;;;3.70;;
37001;SDS011;22913;51.910;8.374;2022-07-24T06:56:48;3.80;;;3.40;;
37001;SDS011;22913;51.910;8.374;2022-07-24T06:59:34;4.20;;;3.90;;
37001;SDS011;22913;51.910;8.374;2022-07-24T07:02:20;4.30;;;3.47;;
37001;SDS011;22913;51.910;8.374;2022-07-24T07:05:06;3.83;;;3.33;;
37001;SDS011;22913;51.910;8.374;2022-07-24T07:07:52;4.20;;;3.73;;
37001;SDS011;22913;51.910;8.374;2022-07-24T07:10:39;3.80;;;3.50;;
37001;SDS011;22913;51.910;8.374;2022-07-24T07:13:25;3.90;;;3.60;;
37001;SDS011;22913;51.910;8.374;2022-07-24T07:16:11;5.63;;;3.90;;
37001;SDS011;22913;51.910;8.374;2022-07-24T07:18:56;4.33;;;3.93;;
37001;SDS011;22913;51.910;8.374;2022-07-24T07:21:42;4.63;;;3.50;;
37001;SDS011;22913;51.910;8.374;2022-07-24T07:24:28;8.03;;;4.17;;
37001;SDS011;22913;51.910;8.374;2022-07-24T07:27:15;4.23;;;3.70;;
37001;SDS011;22913;51.910;8.374;2022-07-24T07:30:00;4.50;;;4.10;;
37001;SDS011;22913;51.910;8.374;2022-07-24T07:32:46;5.83;;;3.90;;
37001;SDS011;22913;51.910;8.374;2022-07-24T07:35:32;4.00;;;3.70;;
37001;SDS011;22913;51.910;8.374;2022-07-24T07:38:17;7.07;;;4.10;;
37001;SDS011;22913;51.910;8.374;2022-07-24T07:41:04;5.20;;;3.60;;
37001;SDS011;22913;51.910;8.374;2022-07-24T07:43:51;4.47;;;4.17;;
37001;SDS011;22913;51.910;8.374;2022-07-24T07:46:37;8.47;;;4.07;;
37001;SDS011;22913;51.910;8.374;2022-07-24T07:49:23;5.47;;;4.27;;
37001;SDS011;22913;51.910;8.374;2022-07-24T07:52:09;4.13;;;3.80;;
37001;SDS011;22913;51.910;8.374;2022-07-24T07:54:54;7.00;;;4.60;;
37001;SDS011;22913;51.910;8.374;2022-07-24T07:57:41;5.93;;;4.60;;
37001;SDS011;22913;51.910;8.374;2022-07-24T08:00:29;5.53;;;4.23;;
37001;SDS011;22913;51.910;8.374;2022-07-24T08:03:14;5.03;;;4.40;;
37001;SDS011;22913;51.910;8.374;2022-07-24T08:06:00;5.43;;;4.23;;
37001;SDS011;22913;51.910;8.374;2022-07-24T08:08:47;5.37;;;4.87;;
37001;SDS011;22913;51.910;8.374;2022-07-24T08:11:33;5.13;;;4.63;;
37001;SDS011;22913;51.910;8.374;2022-07-24T08:14:19;6.53;;;4.30;;
37001;SDS011;22913;51.910;8.374;2022-07-24T08:17:06;5.40;;;4.87;;
37001;SDS011;22913;51.910;8.374;2022-07-24T08:19:52;5.03;;;4.60;;
37001;SDS011;22913;51.910;8.374;2022-07-24T08:22:38;4.93;;;4.43;;
37001;SDS011;22913;51.910;8.374;2022-07-24T08:25:23;5.27;;;4.87;;
37001;SDS011;22913;51.910;8.374;2022-07-24T08:28:09;4.70;;;4.30;;
37001;SDS011;22913;51.910;8.374;2022-07-24T08:30:55;5.57;;;4.37;;
37001;SDS011;22913;51.910;8.374;2022-07-24T08:33:42;9.23;;;4.70;;
37001;SDS011;22913;51.910;8.374;2022-07-24T08:36:28;5.27;;;4.77;;
37001;SDS011;22913;51.910;8.374;2022-07-24T08:39:14;5.93;;;5.37;;
37001;SDS011;22913;51.910;8.374;2022-07-24T08:42:00;5.80;;;5.20;;
37001;SDS011;22913;51.910;8.374;2022-07-24T08:44:46;5.30;;;4.90;;
37001;SDS011;22913;51.910;8.374;2022-07-24T08:47:32;4.93;;;4.63;;
37001;SDS011;22913;51.910;8.374;2022-07-24T08:50:19;10.90;;;5.70;;
37001;SDS011;22913;51.910;8.374;2022-07-24T08:53:05;4.73;;;4.40;;
37001;SDS011;22913;51.910;8.374;2022-07-24T08:55:51;5.37;;;4.87;;
37001;SDS011;22913;51.910;8.374;2022-07-24T08:58:37;5.20;;;4.77;;
37001;SDS011;22913;51.910;8.374;2022-07-24T09:01:23;5.53;;;5.00;;
37001;SDS011;22913;51.910;8.374;2022-07-24T09:07:18;5.93;;;5.40;;
37001;SDS011;22913;51.910;8.374;2022-07-24T09:10:06;5.47;;;4.50;;
37001;SDS011;22913;51.910;8.374;2022-07-24T09:12:54;5.43;;;4.80;;
37001;SDS011;22913;51.910;8.374;2022-07-24T09:15:43;5.87;;;5.37;;
37001;SDS011;22913;51.910;8.374;2022-07-24T09:18:31;6.00;;;5.00;;
37001;SDS011;22913;51.910;8.374;2022-07-24T09:21:19;5.13;;;4.63;;
37001;SDS011;22913;51.910;8.374;2022-07-24T09:24:12;5.93;;;4.53;;
37001;SDS011;22913;51.910;8.374;2022-07-24T09:26:58;5.20;;;4.70;;
37001;SDS011;22913;51.910;8.374;2022-07-24T09:29:44;5.27;;;4.50;;
37001;SDS011;22913;51.910;8.374;2022-07-24T09:32:30;7.50;;;4.57;;
37001;SDS011;22913;51.910;8.374;2022-07-24T09:35:16;6.90;;;4.23;;
37001;SDS011;22913;51.910;8.374;2022-07-24T09:38:02;5.20;;;3.90;;
37001;SDS011;22913;51.910;8.374;2022-07-24T09:40:51;7.50;;;4.57;;
37001;SDS011;22913;51.910;8.374;2022-07-24T09:43:38;4.10;;;3.80;;
37001;SDS011;22913;51.910;8.374;2022-07-24T09:46:25;4.40;;;4.00;;
37001;SDS011;22913;51.910;8.374;2022-07-24T09:49:17;3.90;;;3.60;;
37001;SDS011;22913;51.910;8.374;2022-07-24T09:52:08;5.53;;;4.30;;
37001;SDS011;22913;51.910;8.374;2022-07-24T09:54:56;5.20;;;3.60;;
37001;SDS011;22913;51.910;8.374;2022-07-24T09:57:43;4.20;;;3.83;;
37001;SDS011;22913;51.910;8.374;2022-07-24T10:00:30;4.27;;;3.87;;
37001;SDS011;22913;51.910;8.374;2022-07-24T10:03:16;4.67;;;4.27;;
37001;SDS011;22913;51.910;8.374;2022-07-24T10:06:09;5.17;;;4.40;;
37001;SDS011;22913;51.910;8.374;2022-07-24T10:08:56;4.70;;;4.30;;
37001;SDS011;22913;51.910;8.374;2022-07-24T10:11:43;4.50;;;4.20;;
37001;SDS011;22913;51.910;8.374;2022-07-24T10:14:33;4.73;;;4.33;;
37001;SDS011;22913;51.910;8.374;2022-07-24T10:17:20;5.00;;;4.60;;
37001;SDS011;22913;51.910;8.374;2022-07-24T10:20:06;4.90;;;4.50;;
37001;SDS011;22913;51.910;8.374;2022-07-24T10:22:55;15.90;;;4.97;;
37001;SDS011;22913;51.910;8.374;2022-07-24T10:25:51;4.87;;;4.57;;
37001;SDS011;22913;51.910;8.374;2022-07-24T10:28:39;5.17;;;4.77;;
37001;SDS011;22913;51.910;8.374;2022-07-24T10:31:27;5.43;;;4.90;;
37001;SDS011;22913;51.910;8.374;2022-07-24T10:34:16;4.77;;;4.37;;
37001;SDS011;22913;51.910;8.374;2022-07-24T10:37:11;5.20;;;4.80;;
37001;SDS011;22913;51.910;8.374;2022-07-24T10:40:06;5.13;;;4.40;;
37001;SDS011;22913;51.910;8.374;2022-07-24T10:43:10;5.30;;;4.90;;
37001;SDS011;22913;51.910;8.374;2022-07-24T10:46:10;6.23;;;4.83;;
37001;SDS011;22913;51.910;8.374;2022-07-24T10:49:01;5.43;;;5.00;;
37001;SDS011;22913;51.910;8.374;2022-07-24T10:51:57;5.27;;;4.10;;
37001;SDS011;22913;51.910;8.374;2022-07-24T10:54:43;6.20;;;4.23;;
37001;SDS011;22913;51.910;8.374;2022-07-24T11:00:30;4.47;;;4.07;;
37001;SDS011;22913;51.910;8.374;2022-07-24T11:03:18;4.97;;;4.47;;
37001;SDS011;22913;51.910;8.374;2022-07-24T11:06:07;4.80;;;4.40;;
37001;SDS011;22913;51.910;8.374;2022-07-24T11:08:54;6.70;;;4.83;;
37001;SDS011;22913;51.910;8.374;2022-07-24T11:14:50;4.87;;;4.50;;
37001;SDS011;22913;51.910;8.374;2022-07-24T11:17:37;5.33;;;4.50;;
37001;SDS011;22913;51.910;8.374;2022-07-24T11:20:23;5.23;;;4.83;;
37001;SDS011;22913;51.910;8.374;2022-07-24T11:23:21;5.03;;;4.63;;
37001;SDS011;22913;51.910;8.374;2022-07-24T11:29:25;4.70;;;4.30;;
37001;SDS011;22913;51.910;8.374;2022-07-24T11:32:14;5.77;;;5.27;;
37001;SDS011;22913;51.910;8.374;2022-07-24T11:35:01;5.23;;;4.13;;
37001;SDS011;22913;51.910;8.374;2022-07-24T11:37:48;5.37;;;4.67;;
37001;SDS011;22913;51.910;8.374;2022-07-24T11:40:36;4.53;;;4.20;;
37001;SDS011;22913;51.910;8.374;2022-07-24T11:43:21;5.27;;;4.00;;
37001;SDS011;22913;51.910;8.374;2022-07-24T11:46:06;4.33;;;3.70;;
37001;SDS011;22913;51.910;8.374;2022-07-24T11:49:01;4.40;;;4.10;;
37001;SDS011;22913;51.910;8.374;2022-07-24T11:51:48;4.30;;;3.90;;
37001;SDS011;22913;51.910;8.374;2022-07-24T11:54:55;4.40;;;4.00;;
37001;SDS011;22913;51.910;8.374;2022-07-24T11:57:45;4.20;;;3.90;;
37001;SDS011;22913;51.910;8.374;2022-07-24T12:00:31;5.90;;;4.17;;
37001;SDS011;22913;51.910;8.374;2022-07-24T12:03:17;4.00;;;3.70;;
37001;SDS011;22913;51.910;8.374;2022-07-24T12:06:04;5.20;;;4.30;;
37001;SDS011;22913;51.910;8.374;2022-07-24T12:09:04;4.27;;;3.97;;
37001;SDS011;22913;51.910;8.374;2022-07-24T12:11:51;3.83;;;3.40;;
37001;SDS011;22913;51.910;8.374;2022-07-24T12:14:38;4.20;;;3.90;;
37001;SDS011;22913;51.910;8.374;2022-07-24T12:17:24;5.80;;;3.90;;
37001;SDS011;22913;51.910;8.374;2022-07-24T12:20:09;4.27;;;3.97;;
37001;SDS011;22913;51.910;8.374;2022-07-24T12:22:55;4.50;;;4.10;;
37001;SDS011;22913;51.910;8.374;2022-07-24T12:25:43;4.07;;;3.77;;
37001;SDS011;22913;51.910;8.374;2022-07-24T12:28:29;5.13;;;3.67;;
37001;SDS011;22913;51.910;8.374;2022-07-24T12:31:16;4.33;;;4.00;;
37001;SDS011;22913;51.910;8.374;2022-07-24T12:34:01;3.53;;;3.23;;
37001;SDS011;22913;51.910;8.374;2022-07-24T12:36:47;3.47;;;3.27;;
37001;SDS011;22913;51.910;8.374;2022-07-24T12:39:33;4.87;;;3.60;;
37001;SDS011;22913;51.910;8.374;2022-07-24T12:42:30;4.07;;;3.40;;
37001;SDS011;22913;51.910;8.374;2022-07-24T12:45:17;5.33;;;3.40;;
37001;SDS011;22913;51.910;8.374;2022-07-24T12:48:08;3.73;;;3.43;;
37001;SDS011;22913;51.910;8.374;2022-07-24T12:51:03;3.67;;;3.33;;
37001;SDS011;22913;51.910;8.374;2022-07-24T12:53:52;3.53;;;3.23;;
37001;SDS011;22913;51.910;8.374;2022-07-24T12:56:38;3.67;;;3.37;;
37001;SDS011;22913;51.910;8.374;2022-07-24T12:59:26;3.37;;;3.13;;
37001;SDS011;22913;51.910;8.374;2022-07-24T13:02:12;3.67;;;3.43;;
37001;SDS011;22913;51.910;8.374;2022-07-24T13:05:03;4.37;;;3.60;;
37001;SDS011;22913;51.910;8.374;2022-07-24T13:07:51;3.88;;;3.58;;
37001;SDS011;22913;51.910;8.374;2022-07-24T13:10:36;3.53;;;3.33;;
37001;SDS011;22913;51.910;8.374;2022-07-24T13:13:22;3.80;;;3.50;;
37001;SDS011;22913;51.910;8.374;2022-07-24T13:16:08;3.90;;;3.60;;
37001;SDS011;22913;51.910;8.374;2022-07-24T13:18:54;3.80;;;3.50;;
37001;SDS011;22913;51.910;8.374;2022-07-24T13:21:41;4.32;;;3.60;;
37001;SDS011;22913;51.910;8.374;2022-07-24T13:24:27;5.13;;;3.20;;
37001;SDS011;22913;51.910;8.374;2022-07-24T13:27:13;3.17;;;2.97;;
37001;SDS011;22913;51.910;8.374;2022-07-24T13:30:00;3.20;;;3.00;;
37001;SDS011;22913;51.910;8.374;2022-07-24T13:32:46;3.60;;;3.40;;
37001;SDS011;22913;51.910;8.374;2022-07-24T13:35:32;3.67;;;3.25;;
37001;SDS011;22913;51.910;8.374;2022-07-24T13:38:22;3.70;;;3.40;;
37001;SDS011;22913;51.910;8.374;2022-07-24T13:41:08;4.20;;;3.28;;
37001;SDS011;22913;51.910;8.374;2022-07-24T13:43:54;3.40;;;3.10;;
37001;SDS011;22913;51.910;8.374;2022-07-24T13:46:39;3.22;;;3.03;;
37001;SDS011;22913;51.910;8.374;2022-07-24T13:49:25;3.40;;;3.20;;
37001;SDS011;22913;51.910;8.374;2022-07-24T13:52:11;3.30;;;3.10;;
37001;SDS011;22913;51.910;8.374;2022-07-24T13:54:58;3.25;;;3.05;;
37001;SDS011;22913;51.910;8.374;2022-07-24T13:57:43;3.42;;;3.13;;
37001;SDS011;22913;51.910;8.374;2022-07-24T14:00:29;3.15;;;2.95;;
37001;SDS011;22913;51.910;8.374;2022-07-24T14:03:15;3.65;;;3.35;;
37001;SDS011;22913;51.910;8.374;2022-07-24T14:06:02;3.20;;;2.97;;
37001;SDS011;22913;51.910;8.374;2022-07-24T14:08:51;4.35;;;2.90;;
37001;SDS011;22913;51.910;8.374;2022-07-24T14:11:38;8.95;;;3.10;;
37001;SDS011;22913;51.910;8.374;2022-07-24T14:14:25;3.35;;;3.10;;
37001;SDS011;22913;51.910;8.374;2022-07-24T14:17:10;4.85;;;3.22;;
37001;SDS011;22913;51.910;8.374;2022-07-24T14:19:56;3.30;;;2.70;;
37001;SDS011;22913;51.910;8.374;2022-07-24T14:22:42;3.28;;;3.05;;
37001;SDS011;22913;51.910;8.374;2022-07-24T14:25:27;3.50;;;3.30;;
37001;SDS011;22913;51.910;8.374;2022-07-24T14:28:14;2.92;;;2.63;;
37001;SDS011;22913;51.910;8.374;2022-07-24T14:31:00;4.50;;;3.10;;
37001;SDS011;22913;51.910;8.374;2022-07-24T14:33:46;4.72;;;3.65;;
37001;SDS011;22913;51.910;8.374;2022-07-24T14:36:32;4.63;;;3.15;;
37001;SDS011;22913;51.910;8.374;2022-07-24T14:39:18;3.83;;;3.53;;
37001;SDS011;22913;51.910;8.374;2022-07-24T14:42:04;3.70;;;3.47;;
37001;SDS011;22913;51.910;8.374;2022-07-24T14:44:51;3.40;;;3.20;;
37001;SDS011;22913;51.910;8.374;2022-07-24T14:47:37;3.70;;;3.30;;
37001;SDS011;22913;51.910;8.374;2022-07-24T14:50:22;3.40;;;3.10;;
37001;SDS011;22913;51.910;8.374;2022-07-24T14:53:08;3.30;;;3.10;;
37001;SDS011;22913;51.910;8.374;2022-07-24T14:55:53;4.22;;;3.15;;
37001;SDS011;22913;51.910;8.374;2022-07-24T14:58:39;3.25;;;3.05;;
37001;SDS011;22913;51.910;8.374;2022-07-24T15:01:26;3.95;;;3.60;;
37001;SDS011;22913;51.910;8.374;2022-07-24T15:04:12;3.47;;;3.28;;
37001;SDS011;22913;51.910;8.374;2022-07-24T15:06:57;3.50;;;3.30;;
37001;SDS011;22913;51.910;8.374;2022-07-24T15:09:43;3.42;;;3.22;;
37001;SDS011;22913;51.910;8.374;2022-07-24T15:12:28;3.78;;;3.40;;
37001;SDS011;22913;51.910;8.374;2022-07-24T15:15:14;3.58;;;3.22;;
37001;SDS011;22913;51.910;8.374;2022-07-24T15:18:02;3.42;;;3.22;;
37001;SDS011;22913;51.910;8.374;2022-07-24T15:20:47;4.00;;;3.05;;
37001;SDS011;22913;51.910;8.374;2022-07-24T15:23:33;3.25;;;3.05;;
37001;SDS011;22913;51.910;8.374;2022-07-24T15:26:19;3.55;;;3.25;;
37001;SDS011;22913;51.910;8.374;2022-07-24T15:29:05;4.13;;;3.83;;
37001;SDS011;22913;51.910;8.374;2022-07-24T15:31:50;3.92;;;3.38;;
37001;SDS011;22913;51.910;8.374;2022-07-24T15:34:37;4.80;;;3.63;;
37001;SDS011;22913;51.910;8.374;2022-07-24T15:37:23;3.97;;;3.67;;
37001;SDS011;22913;51.910;8.374;2022-07-24T15:40:09;3.40;;;3.20;;
37001;SDS011;22913;51.910;8.374;2022-07-24T15:42:56;3.72;;;3.42;;
37001;SDS011;22913;51.910;8.374;2022-07-24T15:45:42;5.55;;;4.00;;
37001;SDS011;22913;51.910;8.374;2022-07-24T15:48:28;3.75;;;3.55;;
37001;SDS011;22913;51.910;8.374;2022-07-24T15:51:15;3.25;;;3.05;;
37001;SDS011;22913;51.910;8.374;2022-07-24T15:54:01;4.28;;;3.40;;
37001;SDS011;22913;51.910;8.374;2022-07-24T15:56:47;3.55;;;3.25;;
37001;SDS011;22913;51.910;8.374;2022-07-24T15:59:33;3.72;;;3.42;;
37001;SDS011;22913;51.910;8.374;2022-07-24T16:02:19;3.50;;;3.20;;
37001;SDS011;22913;51.910;8.374;2022-07-24T16:05:06;3.83;;;3.53;;
37001;SDS011;22913;51.910;8.374;2022-07-24T16:07:54;3.10;;;2.90;;
37001;SDS011;22913;51.910;8.374;2022-07-24T16:10:39;3.50;;;3.20;;
37001;SDS011;22913;51.910;8.374;2022-07-24T16:13:25;3.50;;;3.17;;
37001;SDS011;22913;51.910;8.374;2022-07-24T16:16:10;3.70;;;3.50;;
37001;SDS011;22913;51.910;8.374;2022-07-24T16:18:56;3.58;;;3.33;;
37001;SDS011;22913;51.910;8.374;2022-07-24T16:21:42;5.70;;;3.35;;
37001;SDS011;22913;51.910;8.374;2022-07-24T16:24:29;3.60;;;3.40;;
37001;SDS011;22913;51.910;8.374;2022-07-24T16:27:15;4.45;;;3.60;;
37001;SDS011;22913;51.910;8.374;2022-07-24T16:30:01;3.00;;;2.80;;
37001;SDS011;22913;51.910;8.374;2022-07-24T16:32:47;3.83;;;3.53;;
37001;SDS011;22913;51.910;8.374;2022-07-24T16:35:32;3.30;;;3.10;;
37001;SDS011;22913;51.910;8.374;2022-07-24T16:38:18;4.15;;;3.63;;
37001;SDS011;22913;51.910;8.374;2022-07-24T16:41:05;3.80;;;3.50;;
37001;SDS011;22913;51.910;8.374;2022-07-24T16:43:50;4.53;;;3.42;;
37001;SDS011;22913;51.910;8.374;2022-07-24T16:46:36;3.88;;;3.58;;
37001;SDS011;22913;51.910;8.374;2022-07-24T16:49:22;3.45;;;3.20;;
37001;SDS011;22913;51.910;8.374;2022-07-24T16:52:07;3.67;;;3.40;;
37001;SDS011;22913;51.910;8.374;2022-07-24T16:54:55;3.95;;;3.10;;
37001;SDS011;22913;51.910;8.374;2022-07-24T16:57:42;3.63;;;3.33;;